sensor_id;sensor_type;location;lat;lon;timestamp;P1;durP1;ratioP1;P2;durP2;ratioP2
43435;SDS011;36399;51.444;-2.018;2022-08-11T00:00:07;4.33;;;1.97;;
43435;SDS011;36399;51.444;-2.018;2022-08-11T00:02:37;3.60;;;1.90;;
43435;SDS011;36399;51.444;-2.018;2022-08-11T00:05:07;3.93;;;1.43;;
43435;SDS011;36399;51.444;-2.018;2022-08-11T00:07:42;3.00;;;1.67;;
43435;SDS011;36399;51.444;-2.018;2022-08-11T00:10:11;2.67;;;1.50;;
43435;SDS011;36399;51.444;-2.018;2022-08-11T00:12:40;2.93;;;1.50;;
43435;SDS011;36399;51.444;-2.018;2022-08-11T00:15:08;3.73;;;1.90;;
43435;SDS011;36399;51.444;-2.018;2022-08-11T00:17:35;6.83;;;1.83;;
43435;SDS011;36399;51.444;-2.018;2022-08-11T00:20:04;5.90;;;1.90;;
43435;SDS011;36399;51.444;-2.018;2022-08-11T00:22:37;4.47;;;1.63;;
43435;SDS011;36399;51.444;-2.018;2022-08-11T00:25:16;3.90;;;2.10;;
43435;SDS011;36399;51.444;-2.018;2022-08-11T00:27:45;3.80;;;1.90;;
43435;SDS011;36399;51.444;-2.018;2022-08-11T00:30:13;4.53;;;1.87;;
43435;SDS011;36399;51.444;-2.018;2022-08-11T00:32:41;7.33;;;2.13;;
43435;SDS011;36399;51.444;-2.018;2022-08-11T00:35:13;4.10;;;2.40;;
43435;SDS011;36399;51.444;-2.018;2022-08-11T00:37:47;5.20;;;2.25;;
43435;SDS011;36399;51.444;-2.018;2022-08-11T00:40:22;5.72;;;1.83;;
43435;SDS011;36399;51.444;-2.018;2022-08-11T00:43:00;3.40;;;2.00;;
43435;SDS011;36399;51.444;-2.018;2022-08-11T00:45:34;7.03;;;2.47;;
43435;SDS011;36399;51.444;-2.018;2022-08-11T01:02:16;5.90;;;2.80;;
43435;SDS011;36399;51.444;-2.018;2022-08-11T01:35:33;5.00;;;2.87;;
43435;SDS011;36399;51.444;-2.018;2022-08-11T01:41:25;4.35;;;2.90;;
43435;SDS011;36399;51.444;-2.018;2022-08-11T01:45:01;6.00;;;3.03;;
43435;SDS011;36399;51.444;-2.018;2022-08-11T01:49:38;5.23;;;2.90;;
43435;SDS011;36399;51.444;-2.018;2022-08-11T01:53:04;4.00;;;2.83;;
43435;SDS011;36399;51.444;-2.018;2022-08-11T02:03:45;5.60;;;2.93;;
43435;SDS011;36399;51.444;-2.018;2022-08-11T02:11:50;5.20;;;3.17;;
43435;SDS011;36399;51.444;-2.018;2022-08-11T02:14:39;4.57;;;2.93;;
43435;SDS011;36399;51.444;-2.018;2022-08-11T02:17:20;4.90;;;3.20;;
43435;SDS011;36399;51.444;-2.018;2022-08-11T02:20:03;5.53;;;3.03;;
43435;SDS011;36399;51.444;-2.018;2022-08-11T02:22:59;4.77;;;2.90;;
43435;SDS011;36399;51.444;-2.018;2022-08-11T02:25:51;5.00;;;2.77;;
43435;SDS011;36399;51.444;-2.018;2022-08-11T02:28:26;5.83;;;3.03;;
43435;SDS011;36399;51.444;-2.018;2022-08-11T02:34:00;5.87;;;3.40;;
43435;SDS011;36399;51.444;-2.018;2022-08-11T02:36:51;8.47;;;3.17;;
43435;SDS011;36399;51.444;-2.018;2022-08-11T02:39:24;5.70;;;3.30;;
43435;SDS011;36399;51.444;-2.018;2022-08-11T02:41:57;5.88;;;3.25;;
43435;SDS011;36399;51.444;-2.018;2022-08-11T02:44:56;5.53;;;3.03;;
43435;SDS011;36399;51.444;-2.018;2022-08-11T02:47:47;6.97;;;3.37;;
43435;SDS011;36399;51.444;-2.018;2022-08-11T02:50:52;14.73;;;3.87;;
43435;SDS011;36399;51.444;-2.018;2022-08-11T02:53:31;4.47;;;2.63;;
43435;SDS011;36399;51.444;-2.018;2022-08-11T02:58:49;14.00;;;3.70;;
43435;SDS011;36399;51.444;-2.018;2022-08-11T03:01:44;5.05;;;3.05;;
43435;SDS011;36399;51.444;-2.018;2022-08-11T03:04:20;6.43;;;3.03;;
43435;SDS011;36399;51.444;-2.018;2022-08-11T03:12:06;4.93;;;3.43;;
43435;SDS011;36399;51.444;-2.018;2022-08-11T03:23:32;5.93;;;3.63;;
43435;SDS011;36399;51.444;-2.018;2022-08-11T03:32:20;7.80;;;3.87;;
43435;SDS011;36399;51.444;-2.018;2022-08-11T03:34:53;6.77;;;3.70;;
43435;SDS011;36399;51.444;-2.018;2022-08-11T03:37:26;6.13;;;3.77;;
43435;SDS011;36399;51.444;-2.018;2022-08-11T03:44:06;7.10;;;3.63;;
43435;SDS011;36399;51.444;-2.018;2022-08-11T04:03:52;6.67;;;5.17;;
43435;SDS011;36399;51.444;-2.018;2022-08-11T04:06:35;8.60;;;4.77;;
43435;SDS011;36399;51.444;-2.018;2022-08-11T04:31:32;7.87;;;4.10;;
43435;SDS011;36399;51.444;-2.018;2022-08-11T04:56:57;8.57;;;4.88;;
43435;SDS011;36399;51.444;-2.018;2022-08-11T05:00:04;9.23;;;4.90;;
43435;SDS011;36399;51.444;-2.018;2022-08-11T05:14:32;8.50;;;5.23;;
43435;SDS011;36399;51.444;-2.018;2022-08-11T05:17:23;10.77;;;5.70;;
43435;SDS011;36399;51.444;-2.018;2022-08-11T05:20:22;14.03;;;6.93;;
43435;SDS011;36399;51.444;-2.018;2022-08-11T05:23:09;9.50;;;6.53;;
43435;SDS011;36399;51.444;-2.018;2022-08-11T05:25:56;8.23;;;6.20;;
43435;SDS011;36399;51.444;-2.018;2022-08-11T05:28:53;8.53;;;5.40;;
43435;SDS011;36399;51.444;-2.018;2022-08-11T05:31:44;10.13;;;4.90;;
43435;SDS011;36399;51.444;-2.018;2022-08-11T05:34:33;8.53;;;4.77;;
43435;SDS011;36399;51.444;-2.018;2022-08-11T05:39:46;8.73;;;5.47;;
43435;SDS011;36399;51.444;-2.018;2022-08-11T05:42:33;10.70;;;5.70;;
43435;SDS011;36399;51.444;-2.018;2022-08-11T05:45:33;7.03;;;4.55;;
43435;SDS011;36399;51.444;-2.018;2022-08-11T05:48:19;11.33;;;4.60;;
43435;SDS011;36399;51.444;-2.018;2022-08-11T05:51:05;7.43;;;5.10;;
43435;SDS011;36399;51.444;-2.018;2022-08-11T05:53:51;7.83;;;4.67;;
43435;SDS011;36399;51.444;-2.018;2022-08-11T05:56:42;9.93;;;5.50;;
43435;SDS011;36399;51.444;-2.018;2022-08-11T05:59:13;8.50;;;5.10;;
43435;SDS011;36399;51.444;-2.018;2022-08-11T06:01:41;8.13;;;5.23;;
43435;SDS011;36399;51.444;-2.018;2022-08-11T06:04:12;9.43;;;5.00;;
43435;SDS011;36399;51.444;-2.018;2022-08-11T06:06:57;7.88;;;4.75;;
43435;SDS011;36399;51.444;-2.018;2022-08-11T06:12:16;9.37;;;5.50;;
43435;SDS011;36399;51.444;-2.018;2022-08-11T06:14:46;7.83;;;4.87;;
43435;SDS011;36399;51.444;-2.018;2022-08-11T06:17:21;8.80;;;5.17;;
43435;SDS011;36399;51.444;-2.018;2022-08-11T06:22:18;12.17;;;7.13;;
43435;SDS011;36399;51.444;-2.018;2022-08-11T06:24:56;11.47;;;5.90;;
43435;SDS011;36399;51.444;-2.018;2022-08-11T06:27:24;10.20;;;5.33;;
43435;SDS011;36399;51.444;-2.018;2022-08-11T06:29:54;8.53;;;4.83;;
43435;SDS011;36399;51.444;-2.018;2022-08-11T06:32:30;6.63;;;4.70;;
43435;SDS011;36399;51.444;-2.018;2022-08-11T06:35:06;8.87;;;5.07;;
43435;SDS011;36399;51.444;-2.018;2022-08-11T06:37:38;7.23;;;4.67;;
43435;SDS011;36399;51.444;-2.018;2022-08-11T06:40:09;9.00;;;5.00;;
43435;SDS011;36399;51.444;-2.018;2022-08-11T06:42:45;9.47;;;6.43;;
43435;SDS011;36399;51.444;-2.018;2022-08-11T06:47:56;12.10;;;5.03;;
43435;SDS011;36399;51.444;-2.018;2022-08-11T06:50:25;8.97;;;4.87;;
43435;SDS011;36399;51.444;-2.018;2022-08-11T06:53:14;9.73;;;5.23;;
43435;SDS011;36399;51.444;-2.018;2022-08-11T06:55:44;10.27;;;5.00;;
43435;SDS011;36399;51.444;-2.018;2022-08-11T06:58:35;10.10;;;5.07;;
43435;SDS011;36399;51.444;-2.018;2022-08-11T07:04:19;8.67;;;4.73;;
43435;SDS011;36399;51.444;-2.018;2022-08-11T07:06:57;6.27;;;4.20;;
43435;SDS011;36399;51.444;-2.018;2022-08-11T07:13:03;6.67;;;4.00;;
43435;SDS011;36399;51.444;-2.018;2022-08-11T07:15:50;8.17;;;3.80;;
43435;SDS011;36399;51.444;-2.018;2022-08-11T07:18:21;6.40;;;3.20;;
43435;SDS011;36399;51.444;-2.018;2022-08-11T07:24:12;5.40;;;3.07;;
43435;SDS011;36399;51.444;-2.018;2022-08-11T07:27:00;5.40;;;3.20;;
43435;SDS011;36399;51.444;-2.018;2022-08-11T07:29:48;6.57;;;3.20;;
43435;SDS011;36399;51.444;-2.018;2022-08-11T07:32:23;6.50;;;3.40;;
43435;SDS011;36399;51.444;-2.018;2022-08-11T07:34:54;6.17;;;3.30;;
43435;SDS011;36399;51.444;-2.018;2022-08-11T07:37:25;6.87;;;3.83;;
43435;SDS011;36399;51.444;-2.018;2022-08-11T07:39:56;5.38;;;3.28;;
43435;SDS011;36399;51.444;-2.018;2022-08-11T07:42:26;7.00;;;3.88;;
43435;SDS011;36399;51.444;-2.018;2022-08-11T07:44:55;6.07;;;3.22;;
43435;SDS011;36399;51.444;-2.018;2022-08-11T07:47:41;5.25;;;3.60;;
43435;SDS011;36399;51.444;-2.018;2022-08-11T07:50:29;7.55;;;3.45;;
43435;SDS011;36399;51.444;-2.018;2022-08-11T07:53:14;6.85;;;3.55;;
43435;SDS011;36399;51.444;-2.018;2022-08-11T07:55:41;9.48;;;4.72;;
43435;SDS011;36399;51.444;-2.018;2022-08-11T07:58:08;7.00;;;3.53;;
43435;SDS011;36399;51.444;-2.018;2022-08-11T08:00:55;5.78;;;3.65;;
43435;SDS011;36399;51.444;-2.018;2022-08-11T08:03:41;5.00;;;3.10;;
43435;SDS011;36399;51.444;-2.018;2022-08-11T08:06:27;7.68;;;3.20;;
43435;SDS011;36399;51.444;-2.018;2022-08-11T08:09:14;5.03;;;3.42;;
43435;SDS011;36399;51.444;-2.018;2022-08-11T08:12:01;6.68;;;3.05;;
43435;SDS011;36399;51.444;-2.018;2022-08-11T08:14:47;3.83;;;2.83;;
43435;SDS011;36399;51.444;-2.018;2022-08-11T08:17:33;7.22;;;2.92;;
43435;SDS011;36399;51.444;-2.018;2022-08-11T08:20:23;5.65;;;3.40;;
43435;SDS011;36399;51.444;-2.018;2022-08-11T08:22:54;5.78;;;3.15;;
43435;SDS011;36399;51.444;-2.018;2022-08-11T08:25:23;5.05;;;2.40;;
43435;SDS011;36399;51.444;-2.018;2022-08-11T08:28:01;4.65;;;2.80;;
43435;SDS011;36399;51.444;-2.018;2022-08-11T08:30:30;5.80;;;2.47;;
43435;SDS011;36399;51.444;-2.018;2022-08-11T08:33:19;5.82;;;2.45;;
43435;SDS011;36399;51.444;-2.018;2022-08-11T08:35:51;4.57;;;2.08;;
43435;SDS011;36399;51.444;-2.018;2022-08-11T08:38:37;4.32;;;2.53;;
43435;SDS011;36399;51.444;-2.018;2022-08-11T08:41:07;4.68;;;2.10;;
43435;SDS011;36399;51.444;-2.018;2022-08-11T08:43:35;4.65;;;2.22;;
43435;SDS011;36399;51.444;-2.018;2022-08-11T08:46:03;6.72;;;2.38;;
43435;SDS011;36399;51.444;-2.018;2022-08-11T08:48:34;3.65;;;1.98;;
43435;SDS011;36399;51.444;-2.018;2022-08-11T08:51:02;4.25;;;2.00;;
43435;SDS011;36399;51.444;-2.018;2022-08-11T08:53:53;5.53;;;2.63;;
43435;SDS011;36399;51.444;-2.018;2022-08-11T08:56:24;6.00;;;2.70;;
43435;SDS011;36399;51.444;-2.018;2022-08-11T08:58:52;7.20;;;2.38;;
43435;SDS011;36399;51.444;-2.018;2022-08-11T09:01:19;4.03;;;1.67;;
43435;SDS011;36399;51.444;-2.018;2022-08-11T09:03:47;2.45;;;1.65;;
43435;SDS011;36399;51.444;-2.018;2022-08-11T09:06:14;4.45;;;2.10;;
43435;SDS011;36399;51.444;-2.018;2022-08-11T09:08:42;6.38;;;2.00;;
43435;SDS011;36399;51.444;-2.018;2022-08-11T09:11:09;5.60;;;2.30;;
43435;SDS011;36399;51.444;-2.018;2022-08-11T09:13:56;6.47;;;2.75;;
43435;SDS011;36399;51.444;-2.018;2022-08-11T09:16:23;6.05;;;1.58;;
43435;SDS011;36399;51.444;-2.018;2022-08-11T09:18:50;4.50;;;2.10;;
43435;SDS011;36399;51.444;-2.018;2022-08-11T09:21:17;3.80;;;2.33;;
43435;SDS011;36399;51.444;-2.018;2022-08-11T09:23:47;5.25;;;1.60;;
43435;SDS011;36399;51.444;-2.018;2022-08-11T09:26:33;5.32;;;2.17;;
43435;SDS011;36399;51.444;-2.018;2022-08-11T09:29:20;3.88;;;1.58;;
43435;SDS011;36399;51.444;-2.018;2022-08-11T09:31:47;4.90;;;1.98;;
43435;SDS011;36399;51.444;-2.018;2022-08-11T09:34:14;3.88;;;1.73;;
43435;SDS011;36399;51.444;-2.018;2022-08-11T09:36:42;6.13;;;2.65;;
43435;SDS011;36399;51.444;-2.018;2022-08-11T09:39:31;4.57;;;1.70;;
43435;SDS011;36399;51.444;-2.018;2022-08-11T09:42:20;3.42;;;1.70;;
43435;SDS011;36399;51.444;-2.018;2022-08-11T09:44:47;3.08;;;1.73;;
43435;SDS011;36399;51.444;-2.018;2022-08-11T09:47:16;6.68;;;1.67;;
43435;SDS011;36399;51.444;-2.018;2022-08-11T09:50:01;2.70;;;1.77;;
43435;SDS011;36399;51.444;-2.018;2022-08-11T09:52:30;2.75;;;1.65;;
43435;SDS011;36399;51.444;-2.018;2022-08-11T09:55:00;3.78;;;1.73;;
43435;SDS011;36399;51.444;-2.018;2022-08-11T09:57:27;4.20;;;1.60;;
43435;SDS011;36399;51.444;-2.018;2022-08-11T10:00:12;2.65;;;1.50;;
43435;SDS011;36399;51.444;-2.018;2022-08-11T10:02:46;4.10;;;1.85;;
43435;SDS011;36399;51.444;-2.018;2022-08-11T10:05:17;3.30;;;1.48;;
43435;SDS011;36399;51.444;-2.018;2022-08-11T10:08:03;3.97;;;1.85;;
43435;SDS011;36399;51.444;-2.018;2022-08-11T10:10:35;2.70;;;1.60;;
43435;SDS011;36399;51.444;-2.018;2022-08-11T10:15:35;3.65;;;1.65;;
43435;SDS011;36399;51.444;-2.018;2022-08-11T10:18:07;2.65;;;1.50;;
43435;SDS011;36399;51.444;-2.018;2022-08-11T10:21:02;2.83;;;1.50;;
43435;SDS011;36399;51.444;-2.018;2022-08-11T10:23:35;2.47;;;1.35;;
43435;SDS011;36399;51.444;-2.018;2022-08-11T10:26:28;4.13;;;1.38;;
43435;SDS011;36399;51.444;-2.018;2022-08-11T10:29:32;4.53;;;2.10;;
43435;SDS011;36399;51.444;-2.018;2022-08-11T10:32:22;4.43;;;1.55;;
43435;SDS011;36399;51.444;-2.018;2022-08-11T10:35:08;3.22;;;1.30;;
43435;SDS011;36399;51.444;-2.018;2022-08-11T10:37:38;6.32;;;1.40;;
43435;SDS011;36399;51.444;-2.018;2022-08-11T10:40:07;2.40;;;1.40;;
43435;SDS011;36399;51.444;-2.018;2022-08-11T10:42:36;4.43;;;2.03;;
43435;SDS011;36399;51.444;-2.018;2022-08-11T10:45:21;2.90;;;1.65;;
43435;SDS011;36399;51.444;-2.018;2022-08-11T10:48:11;3.60;;;1.88;;
43435;SDS011;36399;51.444;-2.018;2022-08-11T10:50:39;2.72;;;1.50;;
43435;SDS011;36399;51.444;-2.018;2022-08-11T10:53:27;3.40;;;1.60;;
43435;SDS011;36399;51.444;-2.018;2022-08-11T10:56:11;4.95;;;1.63;;
43435;SDS011;36399;51.444;-2.018;2022-08-11T10:58:56;5.68;;;1.73;;
43435;SDS011;36399;51.444;-2.018;2022-08-11T11:01:23;1.83;;;1.33;;
43435;SDS011;36399;51.444;-2.018;2022-08-11T11:03:56;3.95;;;2.05;;
43435;SDS011;36399;51.444;-2.018;2022-08-11T11:06:34;2.60;;;1.60;;
43435;SDS011;36399;51.444;-2.018;2022-08-11T11:09:13;4.10;;;1.70;;
43435;SDS011;36399;51.444;-2.018;2022-08-11T11:11:48;5.30;;;1.98;;
43435;SDS011;36399;51.444;-2.018;2022-08-11T11:14:35;7.88;;;1.75;;
43435;SDS011;36399;51.444;-2.018;2022-08-11T11:17:27;3.42;;;1.42;;
43435;SDS011;36399;51.444;-2.018;2022-08-11T11:20:13;4.10;;;2.05;;
43435;SDS011;36399;51.444;-2.018;2022-08-11T11:22:43;2.90;;;1.85;;
43435;SDS011;36399;51.444;-2.018;2022-08-11T11:25:19;5.18;;;2.03;;
43435;SDS011;36399;51.444;-2.018;2022-08-11T11:33:39;3.47;;;1.80;;
43435;SDS011;36399;51.444;-2.018;2022-08-11T11:39:01;3.60;;;2.45;;
43435;SDS011;36399;51.444;-2.018;2022-08-11T11:41:29;2.58;;;1.63;;
43435;SDS011;36399;51.444;-2.018;2022-08-11T11:43:55;3.75;;;1.55;;
43435;SDS011;36399;51.444;-2.018;2022-08-11T11:46:26;2.92;;;1.55;;
43435;SDS011;36399;51.444;-2.018;2022-08-11T11:48:54;2.45;;;1.60;;
43435;SDS011;36399;51.444;-2.018;2022-08-11T11:51:21;3.45;;;1.60;;
43435;SDS011;36399;51.444;-2.018;2022-08-11T11:53:48;3.15;;;1.55;;
43435;SDS011;36399;51.444;-2.018;2022-08-11T11:56:16;4.75;;;1.58;;
43435;SDS011;36399;51.444;-2.018;2022-08-11T11:58:43;4.70;;;1.83;;
43435;SDS011;36399;51.444;-2.018;2022-08-11T12:01:28;6.00;;;1.80;;
43435;SDS011;36399;51.444;-2.018;2022-08-11T12:03:56;2.78;;;1.60;;
43435;SDS011;36399;51.444;-2.018;2022-08-11T12:06:23;3.80;;;1.60;;
43435;SDS011;36399;51.444;-2.018;2022-08-11T12:08:53;5.00;;;1.90;;
43435;SDS011;36399;51.444;-2.018;2022-08-11T12:11:23;2.30;;;1.40;;
43435;SDS011;36399;51.444;-2.018;2022-08-11T12:14:09;3.78;;;1.58;;
43435;SDS011;36399;51.444;-2.018;2022-08-11T12:16:36;3.20;;;1.80;;
43435;SDS011;36399;51.444;-2.018;2022-08-11T12:19:05;3.50;;;1.60;;
43435;SDS011;36399;51.444;-2.018;2022-08-11T12:21:36;3.40;;;1.65;;
43435;SDS011;36399;51.444;-2.018;2022-08-11T12:24:23;2.45;;;1.70;;
43435;SDS011;36399;51.444;-2.018;2022-08-11T12:27:08;3.67;;;1.40;;
43435;SDS011;36399;51.444;-2.018;2022-08-11T12:30:06;3.47;;;1.50;;
43435;SDS011;36399;51.444;-2.018;2022-08-11T12:32:36;2.28;;;1.45;;
43435;SDS011;36399;51.444;-2.018;2022-08-11T12:35:04;2.45;;;1.33;;
43435;SDS011;36399;51.444;-2.018;2022-08-11T12:37:33;3.85;;;1.60;;
43435;SDS011;36399;51.444;-2.018;2022-08-11T12:40:14;2.58;;;1.30;;
43435;SDS011;36399;51.444;-2.018;2022-08-11T12:43:06;4.38;;;1.70;;
43435;SDS011;36399;51.444;-2.018;2022-08-11T12:45:57;2.85;;;1.50;;
43435;SDS011;36399;51.444;-2.018;2022-08-11T12:48:32;3.33;;;1.48;;
43435;SDS011;36399;51.444;-2.018;2022-08-11T12:51:20;2.88;;;1.52;;
43435;SDS011;36399;51.444;-2.018;2022-08-11T12:54:11;3.47;;;1.38;;
43435;SDS011;36399;51.444;-2.018;2022-08-11T12:56:41;2.22;;;1.23;;
43435;SDS011;36399;51.444;-2.018;2022-08-11T12:59:29;1.95;;;1.15;;
43435;SDS011;36399;51.444;-2.018;2022-08-11T13:02:15;2.50;;;1.23;;
43435;SDS011;36399;51.444;-2.018;2022-08-11T13:05:02;2.00;;;1.00;;
43435;SDS011;36399;51.444;-2.018;2022-08-11T13:07:33;4.70;;;1.52;;
43435;SDS011;36399;51.444;-2.018;2022-08-11T13:10:00;1.88;;;1.17;;
43435;SDS011;36399;51.444;-2.018;2022-08-11T13:12:28;1.85;;;1.15;;
43435;SDS011;36399;51.444;-2.018;2022-08-11T13:15:26;2.30;;;1.10;;
43435;SDS011;36399;51.444;-2.018;2022-08-11T13:17:52;2.95;;;1.70;;
43435;SDS011;36399;51.444;-2.018;2022-08-11T13:20:23;2.22;;;1.40;;
43435;SDS011;36399;51.444;-2.018;2022-08-11T13:22:51;5.28;;;1.50;;
43435;SDS011;36399;51.444;-2.018;2022-08-11T13:25:20;3.75;;;1.30;;
43435;SDS011;36399;51.444;-2.018;2022-08-11T13:27:52;2.90;;;1.25;;
43435;SDS011;36399;51.444;-2.018;2022-08-11T13:30:22;2.42;;;1.40;;
43435;SDS011;36399;51.444;-2.018;2022-08-11T13:33:09;2.95;;;1.30;;
43435;SDS011;36399;51.444;-2.018;2022-08-11T13:35:37;3.05;;;1.20;;
43435;SDS011;36399;51.444;-2.018;2022-08-11T13:38:04;2.30;;;1.27;;
43435;SDS011;36399;51.444;-2.018;2022-08-11T13:40:31;3.10;;;1.33;;
43435;SDS011;36399;51.444;-2.018;2022-08-11T13:42:58;1.95;;;1.10;;
43435;SDS011;36399;51.444;-2.018;2022-08-11T13:45:25;2.03;;;1.08;;
43435;SDS011;36399;51.444;-2.018;2022-08-11T13:47:54;2.10;;;1.20;;
43435;SDS011;36399;51.444;-2.018;2022-08-11T13:50:22;2.20;;;1.17;;
43435;SDS011;36399;51.444;-2.018;2022-08-11T13:53:16;3.47;;;1.40;;
43435;SDS011;36399;51.444;-2.018;2022-08-11T13:55:50;4.22;;;1.38;;
43435;SDS011;36399;51.444;-2.018;2022-08-11T13:58:16;2.70;;;1.40;;
43435;SDS011;36399;51.444;-2.018;2022-08-11T14:00:49;3.10;;;1.20;;
43435;SDS011;36399;51.444;-2.018;2022-08-11T14:03:18;2.33;;;1.15;;
43435;SDS011;36399;51.444;-2.018;2022-08-11T14:08:18;2.85;;;1.10;;
43435;SDS011;36399;51.444;-2.018;2022-08-11T14:10:48;4.05;;;1.30;;
43435;SDS011;36399;51.444;-2.018;2022-08-11T14:13:39;2.25;;;1.35;;
43435;SDS011;36399;51.444;-2.018;2022-08-11T14:16:14;5.57;;;1.48;;
43435;SDS011;36399;51.444;-2.018;2022-08-11T14:18:45;3.13;;;1.10;;
43435;SDS011;36399;51.444;-2.018;2022-08-11T14:21:16;3.08;;;1.38;;
43435;SDS011;36399;51.444;-2.018;2022-08-11T14:24:03;3.15;;;1.08;;
43435;SDS011;36399;51.444;-2.018;2022-08-11T14:26:30;2.42;;;1.33;;
43435;SDS011;36399;51.444;-2.018;2022-08-11T14:29:13;2.05;;;1.00;;
43435;SDS011;36399;51.444;-2.018;2022-08-11T14:34:39;2.40;;;1.10;;
43435;SDS011;36399;51.444;-2.018;2022-08-11T14:37:09;2.03;;;0.95;;
43435;SDS011;36399;51.444;-2.018;2022-08-11T14:39:39;2.13;;;1.20;;
43435;SDS011;36399;51.444;-2.018;2022-08-11T14:42:09;1.52;;;1.10;;
43435;SDS011;36399;51.444;-2.018;2022-08-11T14:44:58;2.58;;;1.40;;
43435;SDS011;36399;51.444;-2.018;2022-08-11T14:47:47;2.20;;;1.15;;
43435;SDS011;36399;51.444;-2.018;2022-08-11T14:50:18;2.65;;;1.48;;
43435;SDS011;36399;51.444;-2.018;2022-08-11T14:52:58;2.45;;;1.23;;
43435;SDS011;36399;51.444;-2.018;2022-08-11T14:55:28;3.08;;;1.35;;
43435;SDS011;36399;51.444;-2.018;2022-08-11T14:58:19;2.05;;;1.20;;
43435;SDS011;36399;51.444;-2.018;2022-08-11T15:00:51;6.13;;;1.50;;
43435;SDS011;36399;51.444;-2.018;2022-08-11T15:03:21;2.15;;;1.23;;
43435;SDS011;36399;51.444;-2.018;2022-08-11T15:05:50;3.30;;;1.10;;
43435;SDS011;36399;51.444;-2.018;2022-08-11T15:08:19;2.58;;;1.15;;
43435;SDS011;36399;51.444;-2.018;2022-08-11T15:11:06;2.08;;;1.20;;
43435;SDS011;36399;51.444;-2.018;2022-08-11T15:13:54;1.75;;;1.20;;
43435;SDS011;36399;51.444;-2.018;2022-08-11T15:16:21;2.60;;;1.10;;
43435;SDS011;36399;51.444;-2.018;2022-08-11T15:19:08;3.05;;;1.27;;
43435;SDS011;36399;51.444;-2.018;2022-08-11T15:21:34;2.25;;;1.38;;
43435;SDS011;36399;51.444;-2.018;2022-08-11T15:24:19;3.33;;;1.15;;
43435;SDS011;36399;51.444;-2.018;2022-08-11T15:26:45;4.55;;;1.25;;
43435;SDS011;36399;51.444;-2.018;2022-08-11T15:29:33;3.50;;;1.20;;
43435;SDS011;36399;51.444;-2.018;2022-08-11T15:32:20;2.58;;;1.00;;
43435;SDS011;36399;51.444;-2.018;2022-08-11T15:34:50;3.40;;;1.58;;
43435;SDS011;36399;51.444;-2.018;2022-08-11T15:37:40;2.85;;;1.20;;
43435;SDS011;36399;51.444;-2.018;2022-08-11T15:40:18;2.45;;;1.13;;
43435;SDS011;36399;51.444;-2.018;2022-08-11T15:43:15;2.17;;;1.25;;
43435;SDS011;36399;51.444;-2.018;2022-08-11T15:46:13;3.67;;;1.30;;
43435;SDS011;36399;51.444;-2.018;2022-08-11T15:51:37;1.95;;;1.15;;
43435;SDS011;36399;51.444;-2.018;2022-08-11T15:54:10;2.80;;;1.20;;
43435;SDS011;36399;51.444;-2.018;2022-08-11T15:56:41;3.38;;;1.20;;
43435;SDS011;36399;51.444;-2.018;2022-08-11T15:59:10;2.00;;;1.10;;
43435;SDS011;36399;51.444;-2.018;2022-08-11T16:01:57;3.45;;;1.98;;
43435;SDS011;36399;51.444;-2.018;2022-08-11T16:04:44;3.33;;;1.25;;
43435;SDS011;36399;51.444;-2.018;2022-08-11T16:07:16;3.25;;;1.33;;
43435;SDS011;36399;51.444;-2.018;2022-08-11T16:09:51;3.40;;;1.95;;
43435;SDS011;36399;51.444;-2.018;2022-08-11T16:12:25;2.50;;;1.42;;
43435;SDS011;36399;51.444;-2.018;2022-08-11T16:14:55;2.30;;;1.00;;
43435;SDS011;36399;51.444;-2.018;2022-08-11T16:17:48;5.05;;;1.35;;
43435;SDS011;36399;51.444;-2.018;2022-08-11T16:20:18;2.83;;;1.38;;
43435;SDS011;36399;51.444;-2.018;2022-08-11T16:22:47;3.70;;;1.20;;
43435;SDS011;36399;51.444;-2.018;2022-08-11T16:25:20;3.47;;;1.50;;
43435;SDS011;36399;51.444;-2.018;2022-08-11T16:27:48;5.95;;;1.42;;
43435;SDS011;36399;51.444;-2.018;2022-08-11T16:30:16;3.33;;;1.30;;
43435;SDS011;36399;51.444;-2.018;2022-08-11T16:32:43;3.40;;;1.50;;
43435;SDS011;36399;51.444;-2.018;2022-08-11T16:35:13;3.80;;;1.08;;
43435;SDS011;36399;51.444;-2.018;2022-08-11T16:38:01;4.47;;;1.90;;
43435;SDS011;36399;51.444;-2.018;2022-08-11T16:40:48;3.28;;;1.92;;
43435;SDS011;36399;51.444;-2.018;2022-08-11T16:43:18;5.87;;;1.47;;
43435;SDS011;36399;51.444;-2.018;2022-08-11T16:46:21;2.55;;;1.65;;
43435;SDS011;36399;51.444;-2.018;2022-08-11T16:49:10;2.63;;;1.52;;
43435;SDS011;36399;51.444;-2.018;2022-08-11T16:51:40;2.22;;;1.15;;
43435;SDS011;36399;51.444;-2.018;2022-08-11T16:54:07;3.58;;;1.70;;
43435;SDS011;36399;51.444;-2.018;2022-08-11T16:56:34;5.53;;;1.88;;
43435;SDS011;36399;51.444;-2.018;2022-08-11T16:59:06;2.17;;;1.20;;
43435;SDS011;36399;51.444;-2.018;2022-08-11T17:01:42;4.15;;;1.73;;
43435;SDS011;36399;51.444;-2.018;2022-08-11T17:07:16;3.70;;;1.40;;
43435;SDS011;36399;51.444;-2.018;2022-08-11T17:10:04;2.95;;;1.60;;
43435;SDS011;36399;51.444;-2.018;2022-08-11T17:12:50;5.38;;;1.55;;
43435;SDS011;36399;51.444;-2.018;2022-08-11T17:15:44;2.40;;;1.30;;
43435;SDS011;36399;51.444;-2.018;2022-08-11T17:18:32;2.42;;;1.40;;
43435;SDS011;36399;51.444;-2.018;2022-08-11T17:21:08;2.50;;;1.35;;
43435;SDS011;36399;51.444;-2.018;2022-08-11T17:23:39;4.55;;;2.00;;
43435;SDS011;36399;51.444;-2.018;2022-08-11T17:26:19;3.08;;;1.55;;
43435;SDS011;36399;51.444;-2.018;2022-08-11T17:28:47;2.85;;;1.42;;
43435;SDS011;36399;51.444;-2.018;2022-08-11T17:31:17;2.53;;;1.58;;
43435;SDS011;36399;51.444;-2.018;2022-08-11T17:34:05;2.60;;;1.40;;
43435;SDS011;36399;51.444;-2.018;2022-08-11T17:36:51;3.05;;;1.70;;
43435;SDS011;36399;51.444;-2.018;2022-08-11T17:39:19;4.35;;;1.83;;
43435;SDS011;36399;51.444;-2.018;2022-08-11T17:41:47;3.55;;;1.40;;
43435;SDS011;36399;51.444;-2.018;2022-08-11T17:44:34;2.15;;;1.40;;
43435;SDS011;36399;51.444;-2.018;2022-08-11T17:47:20;2.72;;;1.40;;
43435;SDS011;36399;51.444;-2.018;2022-08-11T17:50:06;3.53;;;1.85;;
43435;SDS011;36399;51.444;-2.018;2022-08-11T17:52:33;2.70;;;1.55;;
43435;SDS011;36399;51.444;-2.018;2022-08-11T17:55:20;4.90;;;2.33;;
43435;SDS011;36399;51.444;-2.018;2022-08-11T17:58:06;2.80;;;1.63;;
43435;SDS011;36399;51.444;-2.018;2022-08-11T18:00:51;3.35;;;2.05;;
43435;SDS011;36399;51.444;-2.018;2022-08-11T18:03:20;3.15;;;1.80;;
43435;SDS011;36399;51.444;-2.018;2022-08-11T18:05:58;3.30;;;1.33;;
43435;SDS011;36399;51.444;-2.018;2022-08-11T18:08:26;2.72;;;1.67;;
43435;SDS011;36399;51.444;-2.018;2022-08-11T18:11:16;3.55;;;1.80;;
43435;SDS011;36399;51.444;-2.018;2022-08-11T18:14:03;4.13;;;1.77;;
43435;SDS011;36399;51.444;-2.018;2022-08-11T18:16:50;3.10;;;1.77;;
43435;SDS011;36399;51.444;-2.018;2022-08-11T18:19:35;3.35;;;2.17;;
43435;SDS011;36399;51.444;-2.018;2022-08-11T18:22:30;3.80;;;1.80;;
43435;SDS011;36399;51.444;-2.018;2022-08-11T18:25:20;4.05;;;2.20;;
43435;SDS011;36399;51.444;-2.018;2022-08-11T18:28:11;3.22;;;1.45;;
43435;SDS011;36399;51.444;-2.018;2022-08-11T18:31:02;2.83;;;1.60;;
43435;SDS011;36399;51.444;-2.018;2022-08-11T18:33:53;5.53;;;2.70;;
43435;SDS011;36399;51.444;-2.018;2022-08-11T18:36:40;4.03;;;2.10;;
43435;SDS011;36399;51.444;-2.018;2022-08-11T18:39:31;3.60;;;2.00;;
43435;SDS011;36399;51.444;-2.018;2022-08-11T18:42:18;7.65;;;2.10;;
43435;SDS011;36399;51.444;-2.018;2022-08-11T18:45:07;4.80;;;1.90;;
43435;SDS011;36399;51.444;-2.018;2022-08-11T18:47:57;5.82;;;2.38;;
43435;SDS011;36399;51.444;-2.018;2022-08-11T18:50:45;5.95;;;2.00;;
43435;SDS011;36399;51.444;-2.018;2022-08-11T18:53:31;9.10;;;2.53;;
43435;SDS011;36399;51.444;-2.018;2022-08-11T18:56:20;10.48;;;2.78;;
43435;SDS011;36399;51.444;-2.018;2022-08-11T18:59:05;11.70;;;4.90;;
43435;SDS011;36399;51.444;-2.018;2022-08-11T19:01:52;5.43;;;2.72;;
43435;SDS011;36399;51.444;-2.018;2022-08-11T19:04:39;5.45;;;2.17;;
43435;SDS011;36399;51.444;-2.018;2022-08-11T19:07:26;4.32;;;1.83;;